Laconia, NH

12:02 PM EST on March 04, 2015 (GMT -0500)
Laconia Municipal | Change Station
CLOSE
Current Station
Airport
Location: Laconia,
Elevation: 545 ft
Nearby Weather Stations

Elev 545 ft 43.57 °N, 71.42 °W | Updated 7 minutes ago

Mostly Cloudy
Mostly Cloudy
41 °F
Feels Like 34 °F
N
13
Wind Variable Wind from WSW
Gusts 17 mph

Today
High -- | Low -- °F
--% Chance of Precip.
Yesterday
High -- | Low -- °F
Precip. -- in
6:17 AM 5:38 PM
Waxing Gibbous, 99% visible
Pressure 29.69 in
Visibility 10.0 miles
Clouds Mostly Cloudy 3900 ft
Overcast 4700 ft
Windchill 34 °F
Dew Point 27 °F
Humidity 57%
Rainfall 0.00 in
Snow Depth Not available.
UV 2 out of 12
Pollen .30 out of 12
Air Quality Not available.
Flu Activity Not available.
METAR KLCI 041655Z AUTO 25011G15KT 10SM BKN039 OVC047 05/M03 A2969 RMK AO1

More Conditions Fewer Conditions

Pressure 29.69 in
Visibility 10.0 miles
Clouds Mostly Cloudy 3900 ft
Overcast 4700 ft
Windchill 34 °F
Dew Point 27 °F
Humidity 57%
Rainfall 0.00 in
Snow Depth Not available.
UV 2 out of 12
Pollen .30 out of 12
Air Quality Not available.
Flu Activity Not available.
METAR KLCI 041655Z AUTO 25011G15KT 10SM BKN039 OVC047 05/M03 A2969 RMK AO1

More Conditions Fewer Conditions

10-Day Weather Forecast

Almanac

Astronomy

Mar. 04, 2015 Rise Set
Actual Time
Civil Twilight
Nautical Twilight
Astronomical Twilight
Moon
Length of Visible Light
Length of Day
Tomorrow will be .
, % of the Moon is Illuminated

Today's Extremes

State Highs State Lows

Community

WunderPhotos

Upload Photos

1,802,505 photos uploaded!

WunderBlogs® & News

Nearby

Air Quality

  Air Quality AQ Index Pollutant
Not available.

Snow Depth

Station Depth Elevation

Earthquake Activity

City Distance Mag. Time & Date
Minimum magnitude displayed is 2.5.

Coastal Water Temperatures

Place Temperature

Nearby Weather Stations